CheckWX is a tool to help pilots better visualize weather data.  It is not intended as a substitute for an official pre-flight weather briefing.

09:47:34 UTC

EVRA METAR
Riga International Airport
Riga, Latvia
Current

28 mins ago

EVRA 260920Z 18013KT 9999 FEW020 04/01 Q0986 R18/290195 NOSIG
Observed
Feb-26 @ 09:20 UTC
Wind
  • 180° at 13 KTS
Visibility
10,000+ meters
Flight Rules
VFR
Cloud Levels
  • Few at 2,000' AGL
Temperature
C / 39°F
Dewpoint
C / 34°F
Humidity
81%
Altimeter
29.11" Hg
Pressure
985.92 hPa
Previous

58 mins ago

EVRA 260850Z 18014KT 9999 SCT047 03/00 Q0987 R18/290195 NOSIG
Observed
Feb-26 @ 08:50 UTC
Wind
  • 180° at 14 KTS
Visibility
10,000+ meters
Flight Rules
VFR
Cloud Levels
  • Scattered at 4,700' AGL
Temperature
C / 37°F
Dewpoint
C / 32°F
Humidity
81%
Altimeter
29.14" Hg
Pressure
986.92 hPa
Previous

1 hour ago

EVRA 260820Z 18011KT 9999 SCT048 03/00 Q0986 R18/290195 NOSIG
Observed
Feb-26 @ 08:20 UTC
Wind
  • 180° at 11 KTS
Visibility
10,000+ meters
Flight Rules
VFR
Cloud Levels
  • Scattered at 4,800' AGL
Temperature
C / 37°F
Dewpoint
C / 32°F
Humidity
81%
Altimeter
29.11" Hg
Pressure
985.92 hPa